createdAt,value
2022-10-08T00:00:47.752Z,11.91
2022-10-08T00:01:47.793Z,11.90
2022-10-08T00:02:48.236Z,11.95
2022-10-08T00:03:47.815Z,11.96
2022-10-08T00:04:47.661Z,12.01
2022-10-08T00:05:47.636Z,11.95
2022-10-08T00:06:47.616Z,12.01
2022-10-08T00:07:47.610Z,11.94
2022-10-08T00:08:47.564Z,11.98
2022-10-08T00:09:47.541Z,12.02
2022-10-08T00:10:47.518Z,11.98
2022-10-08T00:11:47.492Z,11.98
2022-10-08T00:12:47.966Z,11.99
2022-10-08T00:13:47.449Z,12.02
2022-10-08T00:14:47.419Z,11.88
2022-10-08T00:15:47.449Z,11.90
2022-10-08T00:16:47.373Z,11.96
2022-10-08T00:17:47.351Z,11.95
2022-10-08T00:18:47.334Z,11.91
2022-10-08T00:19:47.308Z,11.88
2022-10-08T00:20:47.284Z,11.94
2022-10-08T00:21:47.254Z,11.83
2022-10-08T00:22:47.511Z,11.86
2022-10-08T00:23:47.229Z,11.91
2022-10-08T00:24:47.185Z,11.95
2022-10-08T00:25:47.164Z,11.99
2022-10-08T00:26:47.138Z,11.98
2022-10-08T00:27:47.118Z,11.90
2022-10-08T00:28:47.090Z,11.85
2022-10-08T00:29:47.067Z,11.88
2022-10-08T00:30:47.040Z,11.94
2022-10-08T00:31:47.133Z,11.98
2022-10-08T00:32:47.251Z,11.98
2022-10-08T00:33:46.976Z,11.83
2022-10-08T00:34:46.946Z,11.90
2022-10-08T00:35:46.926Z,11.96
2022-10-08T00:36:46.901Z,11.94
2022-10-08T00:37:46.881Z,11.80
2022-10-08T00:38:46.854Z,11.91
2022-10-08T00:39:46.851Z,11.91
2022-10-08T00:40:46.812Z,11.85
2022-10-08T00:41:46.784Z,11.86
2022-10-08T00:42:47.041Z,11.88
2022-10-08T00:43:46.734Z,11.78
2022-10-08T00:44:46.712Z,11.91
2022-10-08T00:45:46.714Z,11.86
2022-10-08T00:46:46.665Z,11.76
2022-10-08T00:47:46.645Z,11.78
2022-10-08T00:48:46.617Z,11.78
2022-10-08T00:49:46.598Z,11.75
2022-10-08T00:50:46.565Z,11.73
2022-10-08T00:51:46.541Z,11.79
2022-10-08T00:52:46.839Z,11.75
2022-10-08T00:53:46.495Z,11.76
2022-10-08T00:54:46.471Z,11.79
2022-10-08T00:55:46.535Z,11.72
2022-10-08T00:56:46.427Z,11.76
2022-10-08T00:57:46.403Z,11.67
2022-10-08T00:58:46.377Z,11.64
2022-10-08T00:59:46.352Z,11.67
2022-10-08T01:00:46.362Z,11.65
2022-10-08T01:01:46.317Z,11.75
2022-10-08T01:02:46.515Z,11.58
2022-10-08T01:03:46.258Z,11.72
2022-10-08T01:04:46.236Z,11.72
2022-10-08T01:05:46.208Z,11.67
2022-10-08T01:06:46.181Z,11.60
2022-10-08T01:07:46.161Z,11.67
2022-10-08T01:08:46.141Z,11.55
2022-10-08T01:09:46.114Z,11.70
2022-10-08T01:10:46.087Z,11.57
2022-10-08T01:11:46.103Z,11.57
2022-10-08T01:12:46.414Z,11.57
2022-10-08T01:13:46.018Z,11.57
2022-10-08T01:14:45.995Z,11.72
2022-10-08T01:15:45.974Z,11.58
2022-10-08T01:16:46.104Z,11.55
2022-10-08T01:17:45.923Z,11.72
2022-10-08T01:18:45.900Z,11.69
2022-10-08T01:19:45.877Z,11.75
2022-10-08T01:20:45.856Z,11.75
2022-10-08T01:21:45.833Z,11.67
2022-10-08T01:22:46.132Z,11.60
2022-10-08T01:23:45.780Z,11.60
2022-10-08T01:24:45.755Z,11.61
2022-10-08T01:25:45.738Z,11.54
2022-10-08T01:26:45.708Z,11.67
2022-10-08T01:27:45.702Z,11.60
2022-10-08T01:28:45.781Z,11.60
2022-10-08T01:29:45.638Z,11.72
2022-10-08T01:30:45.613Z,11.67
2022-10-08T01:31:45.694Z,11.61
2022-10-08T01:32:45.890Z,11.67
2022-10-08T01:33:45.541Z,11.58
2022-10-08T01:34:45.518Z,11.72
2022-10-08T01:35:45.497Z,11.60
2022-10-08T01:36:45.466Z,11.60
2022-10-08T01:37:45.451Z,11.64
2022-10-08T01:38:45.420Z,11.58
2022-10-08T01:39:45.397Z,11.58
2022-10-08T01:40:45.377Z,11.69
2022-10-08T01:41:45.348Z,11.64
2022-10-08T01:42:45.678Z,11.67
2022-10-08T01:43:45.376Z,11.67
2022-10-08T01:44:45.282Z,11.67
2022-10-08T01:45:45.297Z,11.72
2022-10-08T01:46:45.232Z,11.73
2022-10-08T01:47:45.210Z,11.76
2022-10-08T01:48:45.188Z,11.70
2022-10-08T01:49:45.165Z,11.67
2022-10-08T01:50:45.132Z,11.73
2022-10-08T01:51:45.113Z,11.65
2022-10-08T01:52:45.480Z,11.73
2022-10-08T01:53:45.063Z,11.72
2022-10-08T01:54:45.036Z,11.57
2022-10-08T01:55:45.015Z,11.58
2022-10-08T01:56:44.988Z,11.57
2022-10-08T01:57:44.972Z,11.55
2022-10-08T01:58:44.944Z,11.57
2022-10-08T01:59:44.949Z,11.55
2022-10-08T02:00:44.952Z,11.55
2022-10-08T02:01:44.909Z,11.58
2022-10-08T02:02:45.148Z,11.52
2022-10-08T02:03:44.830Z,11.60
2022-10-08T02:04:44.803Z,11.57
2022-10-08T02:05:44.779Z,11.47
2022-10-08T02:06:44.754Z,11.57
2022-10-08T02:07:44.732Z,11.55
2022-10-08T02:08:44.705Z,11.57
2022-10-08T02:09:44.683Z,11.51
2022-10-08T02:10:44.654Z,11.57
2022-10-08T02:11:44.636Z,11.58
2022-10-08T02:12:44.991Z,11.60
2022-10-08T02:13:44.590Z,11.60
2022-10-08T02:14:44.560Z,11.57
2022-10-08T02:15:44.563Z,11.67
2022-10-08T02:16:44.607Z,11.67
2022-10-08T02:17:44.488Z,11.72
2022-10-08T02:18:44.467Z,11.65
2022-10-08T02:19:44.440Z,11.75
2022-10-08T02:20:44.415Z,11.73
2022-10-08T02:21:44.396Z,11.83
2022-10-08T02:22:44.593Z,11.79
2022-10-08T02:23:44.346Z,11.82
2022-10-08T02:24:44.332Z,11.80
2022-10-08T02:25:44.305Z,11.80
2022-10-08T02:26:44.280Z,11.78
2022-10-08T02:27:44.253Z,11.76
2022-10-08T02:28:44.255Z,11.94
2022-10-08T02:29:44.202Z,11.88
2022-10-08T02:30:44.175Z,11.95
2022-10-08T02:31:44.243Z,11.88
2022-10-08T02:32:44.346Z,11.96
2022-10-08T02:33:44.106Z,11.94
2022-10-08T02:34:44.082Z,11.98
2022-10-08T02:35:44.061Z,11.86
2022-10-08T02:36:44.034Z,11.91
2022-10-08T02:37:44.019Z,11.96
2022-10-08T02:38:43.985Z,11.98
2022-10-08T02:39:43.970Z,11.95
2022-10-08T02:40:43.939Z,11.91
2022-10-08T02:41:43.913Z,11.95
2022-10-08T02:42:44.046Z,11.91
2022-10-08T02:43:43.869Z,11.96
2022-10-08T02:44:43.850Z,11.90
2022-10-08T02:45:43.837Z,12.04
2022-10-08T02:46:43.798Z,11.88
2022-10-08T02:47:43.796Z,11.91
2022-10-08T02:48:43.749Z,11.99
2022-10-08T02:49:43.733Z,11.99
2022-10-08T02:50:43.703Z,12.04
2022-10-08T02:51:43.681Z,11.94
2022-10-08T02:52:43.989Z,11.94
2022-10-08T02:53:43.631Z,12.04
2022-10-08T02:54:43.608Z,11.99
2022-10-08T02:55:43.583Z,12.05
2022-10-08T02:56:43.560Z,12.10
2022-10-08T02:57:43.536Z,12.04
2022-10-08T02:58:43.518Z,12.02
2022-10-08T02:59:43.486Z,12.04
2022-10-08T03:00:43.464Z,12.01
2022-10-08T03:01:43.505Z,12.07
2022-10-08T03:02:43.562Z,12.10
2022-10-08T03:03:43.415Z,12.12
2022-10-08T03:04:43.367Z,12.12
2022-10-08T03:05:43.345Z,12.12
2022-10-08T03:06:43.322Z,12.09
2022-10-08T03:07:43.298Z,12.02
2022-10-08T03:08:43.274Z,12.10
2022-10-08T03:09:43.255Z,12.10
2022-10-08T03:10:43.225Z,12.07
2022-10-08T03:11:43.202Z,12.10
2022-10-08T03:12:43.180Z,12.10
2022-10-08T03:13:43.158Z,12.16
2022-10-08T03:14:43.129Z,12.13
2022-10-08T03:15:43.113Z,12.19
2022-10-08T03:16:43.107Z,12.12
2022-10-08T03:17:43.061Z,12.12
2022-10-08T03:18:43.035Z,12.10
2022-10-08T03:19:43.036Z,12.16
2022-10-08T03:20:42.992Z,12.16
2022-10-08T03:21:42.966Z,12.10
2022-10-08T03:22:42.944Z,12.13
2022-10-08T03:23:42.922Z,12.12
2022-10-08T03:24:42.896Z,12.21
2022-10-08T03:25:42.872Z,12.16
2022-10-08T03:26:42.848Z,12.17
2022-10-08T03:27:42.823Z,12.23
2022-10-08T03:28:42.851Z,12.10
2022-10-08T03:29:42.775Z,12.16
2022-10-08T03:30:42.836Z,12.19
2022-10-08T03:31:42.725Z,12.14
2022-10-08T03:32:42.702Z,12.20
2022-10-08T03:33:42.680Z,12.16
2022-10-08T03:34:42.653Z,12.13
2022-10-08T03:35:42.653Z,12.20
2022-10-08T03:36:42.605Z,12.17
2022-10-08T03:37:42.585Z,12.20
2022-10-08T03:38:42.563Z,12.19
2022-10-08T03:39:42.540Z,12.24
2022-10-08T03:40:42.515Z,12.21
2022-10-08T03:41:42.491Z,12.20
2022-10-08T03:42:42.479Z,12.20
2022-10-08T03:43:42.446Z,12.20
2022-10-08T03:44:42.428Z,12.17
2022-10-08T03:45:42.423Z,12.19
2022-10-08T03:46:42.380Z,12.19
2022-10-08T03:47:42.352Z,12.16
2022-10-08T03:48:42.331Z,12.20
2022-10-08T03:49:42.300Z,12.24
2022-10-08T03:50:42.277Z,12.17
2022-10-08T03:51:42.280Z,12.31
2022-10-08T03:52:42.229Z,12.19
2022-10-08T03:53:42.212Z,12.21
2022-10-08T03:54:42.190Z,12.17
2022-10-08T03:55:42.163Z,12.20
2022-10-08T03:56:42.133Z,12.19
2022-10-08T03:57:42.111Z,12.19
2022-10-08T03:58:42.089Z,12.23
2022-10-08T03:59:42.064Z,12.27
2022-10-08T04:00:42.040Z,12.19
2022-10-08T04:01:42.062Z,12.19
2022-10-08T04:02:42.031Z,12.17
2022-10-08T04:03:41.972Z,12.21
2022-10-08T04:04:41.947Z,12.17
2022-10-08T04:05:41.925Z,12.16
2022-10-08T04:06:41.901Z,12.16
2022-10-08T04:07:41.897Z,12.16
2022-10-08T04:08:41.850Z,12.27
2022-10-08T04:09:41.825Z,12.23
2022-10-08T04:10:41.804Z,12.23
2022-10-08T04:11:41.786Z,12.17
2022-10-08T04:12:41.757Z,12.16
2022-10-08T04:13:41.732Z,12.14
2022-10-08T04:14:41.707Z,12.19
2022-10-08T04:15:41.747Z,12.12
2022-10-08T04:16:41.662Z,12.14
2022-10-08T04:17:41.641Z,12.12
2022-10-08T04:18:41.620Z,12.17
2022-10-08T04:19:41.589Z,12.16
2022-10-08T04:20:41.567Z,12.19
2022-10-08T04:21:41.544Z,12.16
2022-10-08T04:22:41.548Z,12.14
2022-10-08T04:23:41.528Z,12.14
2022-10-08T04:24:41.479Z,12.20
2022-10-08T04:25:41.447Z,12.14
2022-10-08T04:26:41.428Z,12.20
2022-10-08T04:27:41.404Z,12.12
2022-10-08T04:28:41.486Z,12.16
2022-10-08T04:29:41.358Z,12.13
2022-10-08T04:30:41.445Z,12.16
2022-10-08T04:31:41.310Z,12.13
2022-10-08T04:32:41.283Z,12.19
2022-10-08T04:33:41.262Z,12.17
2022-10-08T04:34:41.233Z,12.17
2022-10-08T04:35:41.214Z,12.10
2022-10-08T04:36:41.192Z,12.13
2022-10-08T04:37:41.170Z,12.20
2022-10-08T04:38:41.141Z,12.12
2022-10-08T04:39:41.145Z,12.10
2022-10-08T04:40:41.093Z,12.17
2022-10-08T04:41:41.074Z,12.12
2022-10-08T04:42:41.052Z,12.13
2022-10-08T04:43:41.027Z,12.19
2022-10-08T04:44:40.997Z,12.16
2022-10-08T04:45:40.985Z,12.14
2022-10-08T04:46:41.015Z,12.13
2022-10-08T04:47:40.927Z,12.12
2022-10-08T04:48:40.913Z,12.17
2022-10-08T04:49:40.887Z,12.16
2022-10-08T04:50:40.862Z,12.14
2022-10-08T04:51:40.833Z,12.14
2022-10-08T04:52:40.822Z,12.12
2022-10-08T04:53:40.792Z,12.17
2022-10-08T04:54:40.762Z,12.14
2022-10-08T04:55:40.762Z,12.23
2022-10-08T04:56:40.720Z,12.19
2022-10-08T04:57:40.696Z,12.14
2022-10-08T04:58:40.665Z,12.16
2022-10-08T04:59:59.472Z,12.13
2022-10-08T05:00:40.619Z,12.10
2022-10-08T05:01:40.632Z,12.14
2022-10-08T05:02:40.602Z,12.02
2022-10-08T05:03:40.551Z,12.10
2022-10-08T05:04:40.524Z,12.07
2022-10-08T05:05:40.503Z,12.13
2022-10-08T05:06:40.483Z,12.17
2022-10-08T05:07:40.455Z,12.10
2022-10-08T05:08:40.429Z,12.13
2022-10-08T05:09:40.409Z,12.09
2022-10-08T05:10:40.382Z,12.10
2022-10-08T05:11:40.384Z,12.16
2022-10-08T05:12:40.334Z,12.10
2022-10-08T05:13:40.311Z,12.05
2022-10-08T05:14:40.289Z,12.12
2022-10-08T05:15:40.337Z,12.07
2022-10-08T05:16:40.245Z,12.07
2022-10-08T05:17:40.215Z,12.07
2022-10-08T05:18:40.191Z,12.09
2022-10-08T05:19:40.168Z,12.07
2022-10-08T05:20:40.148Z,12.05
2022-10-08T05:21:40.125Z,12.12
2022-10-08T05:22:40.097Z,12.10
2022-10-08T05:23:40.079Z,12.10
2022-10-08T05:24:40.050Z,12.13
2022-10-08T05:25:40.036Z,12.07
2022-10-08T05:26:58.109Z,12.04
2022-10-08T05:27:40.001Z,12.05
2022-10-08T05:28:40.059Z,12.07
2022-10-08T05:29:39.929Z,12.04
2022-10-08T05:30:39.910Z,12.12
2022-10-08T05:31:39.882Z,12.02
2022-10-08T05:32:39.864Z,11.99
2022-10-08T05:33:39.839Z,12.07
2022-10-08T05:34:39.817Z,11.96
2022-10-08T05:35:39.785Z,12.16
2022-10-08T05:36:39.760Z,12.04
2022-10-08T05:37:39.745Z,12.02
2022-10-08T05:38:39.715Z,12.05
2022-10-08T05:39:39.691Z,12.07
2022-10-08T05:40:39.668Z,12.04
2022-10-08T05:41:39.652Z,12.05
2022-10-08T05:42:39.622Z,11.96
2022-10-08T05:43:39.649Z,12.04
2022-10-08T05:44:41.453Z,12.12
2022-10-08T05:45:39.552Z,12.07
2022-10-08T05:46:39.662Z,12.10
2022-10-08T05:47:39.504Z,12.09
2022-10-08T05:48:39.484Z,12.13
2022-10-08T05:49:39.454Z,12.05
2022-10-08T05:50:39.428Z,12.05
2022-10-08T05:51:39.407Z,12.05
2022-10-08T05:52:39.390Z,12.17
2022-10-08T05:53:39.360Z,12.16
2022-10-08T05:54:39.333Z,12.10
2022-10-08T05:55:39.314Z,12.21
2022-10-08T05:56:39.288Z,12.05
2022-10-08T05:57:39.268Z,12.24
2022-10-08T05:58:39.240Z,12.21
2022-10-08T05:59:39.237Z,12.20
2022-10-08T06:00:39.196Z,12.17
2022-10-08T06:01:39.173Z,12.19
2022-10-08T06:02:39.227Z,12.17
2022-10-08T06:03:39.125Z,12.21
2022-10-08T06:04:39.145Z,12.23
2022-10-08T06:05:39.075Z,12.17
2022-10-08T06:06:39.058Z,12.21
2022-10-08T06:07:39.028Z,12.28
2022-10-08T06:08:39.005Z,12.21
2022-10-08T06:09:38.983Z,12.19
2022-10-08T06:10:38.954Z,12.29
2022-10-08T06:11:38.940Z,12.19
2022-10-08T06:12:38.916Z,12.16
2022-10-08T06:13:38.887Z,12.17
2022-10-08T06:14:38.865Z,12.23
2022-10-08T06:15:38.857Z,12.20
2022-10-08T06:16:38.901Z,12.21
2022-10-08T06:17:38.794Z,12.31
2022-10-08T06:18:38.771Z,12.34
2022-10-08T06:19:38.746Z,12.24
2022-10-08T06:20:38.721Z,12.19
2022-10-08T06:21:38.701Z,12.20
2022-10-08T06:22:38.678Z,12.23
2022-10-08T06:23:38.653Z,12.16
2022-10-08T06:24:38.630Z,12.31
2022-10-08T06:25:38.605Z,12.27
2022-10-08T06:26:38.581Z,12.28
2022-10-08T06:27:38.553Z,12.34
2022-10-08T06:28:38.559Z,12.34
2022-10-08T06:29:38.515Z,12.24
2022-10-08T06:30:38.483Z,12.29
2022-10-08T06:31:38.546Z,12.35
2022-10-08T06:32:38.437Z,12.35
2022-10-08T06:33:38.411Z,12.34
2022-10-08T06:34:38.391Z,12.31
2022-10-08T06:35:38.369Z,12.32
2022-10-08T06:36:38.343Z,12.35
2022-10-08T06:37:38.317Z,12.50
2022-10-08T06:38:38.296Z,12.41
2022-10-08T06:39:38.272Z,12.38
2022-10-08T06:40:38.248Z,12.45
2022-10-08T06:41:38.226Z,12.32
2022-10-08T06:42:38.201Z,12.38
2022-10-08T06:43:38.179Z,12.41
2022-10-08T06:44:38.153Z,12.41
2022-10-08T06:45:38.131Z,12.39
2022-10-08T06:46:38.196Z,12.50
2022-10-08T06:47:38.100Z,12.50
2022-10-08T06:48:38.061Z,12.52
2022-10-08T06:49:38.046Z,12.52
2022-10-08T06:50:38.012Z,12.49
2022-10-08T06:51:37.986Z,12.50
2022-10-08T06:52:37.966Z,12.46
2022-10-08T06:53:37.939Z,12.49
2022-10-08T06:54:37.916Z,12.53
2022-10-08T06:55:37.891Z,12.52
2022-10-08T06:56:37.882Z,12.56
2022-10-08T06:57:37.845Z,12.53
2022-10-08T06:58:37.831Z,12.50
2022-10-08T06:59:37.798Z,12.54
2022-10-08T07:00:37.834Z,12.52
2022-10-08T07:01:37.878Z,12.53
2022-10-08T07:02:37.811Z,12.50
2022-10-08T07:03:37.724Z,12.60
2022-10-08T07:04:37.682Z,12.65
2022-10-08T07:05:37.657Z,12.53
2022-10-08T07:06:37.638Z,12.54
2022-10-08T07:07:37.617Z,12.60
2022-10-08T07:08:37.587Z,12.60
2022-10-08T07:09:37.568Z,12.59
2022-10-08T07:10:37.542Z,12.60
2022-10-08T07:11:37.520Z,12.62
2022-10-08T07:12:37.493Z,12.60
2022-10-08T07:13:37.470Z,12.65
2022-10-08T07:14:37.451Z,12.64
2022-10-08T07:15:37.424Z,12.70
2022-10-08T07:16:37.468Z,12.74
2022-10-08T07:17:37.373Z,12.72
2022-10-08T07:18:37.351Z,12.70
2022-10-08T07:19:37.348Z,12.72
2022-10-08T07:20:37.305Z,12.68
2022-10-08T07:21:37.288Z,12.67
2022-10-08T07:22:37.264Z,12.67
2022-10-08T07:23:37.235Z,12.77
2022-10-08T07:24:37.211Z,12.71
2022-10-08T07:25:37.192Z,12.78
2022-10-08T07:26:37.165Z,12.83
2022-10-08T07:27:39.506Z,12.72
2022-10-08T07:28:37.225Z,12.68
2022-10-08T07:29:37.099Z,12.75
2022-10-08T07:30:37.073Z,12.72
2022-10-08T07:31:37.212Z,12.70
2022-10-08T07:32:37.029Z,12.74
2022-10-08T07:33:36.998Z,12.72
2022-10-08T07:34:36.976Z,12.75
2022-10-08T07:35:36.968Z,12.72
2022-10-08T07:36:36.928Z,12.72
2022-10-08T07:37:36.909Z,12.71
2022-10-08T07:38:36.879Z,12.77
2022-10-08T07:39:36.858Z,12.77
2022-10-08T07:40:36.833Z,12.71
2022-10-08T07:41:36.815Z,12.72
2022-10-08T07:42:36.790Z,12.75
2022-10-08T07:43:36.765Z,12.72
2022-10-08T07:44:36.742Z,12.72
2022-10-08T07:45:36.750Z,12.71
2022-10-08T07:46:36.724Z,12.72
2022-10-08T07:47:36.671Z,12.72
2022-10-08T07:48:36.646Z,12.71
2022-10-08T07:49:36.623Z,12.85
2022-10-08T07:50:36.603Z,12.78
2022-10-08T07:51:36.613Z,12.79
2022-10-08T07:52:36.553Z,12.85
2022-10-08T07:53:36.530Z,12.79
2022-10-08T07:54:36.510Z,12.82
2022-10-08T07:55:36.483Z,12.82
2022-10-08T07:56:36.464Z,12.85
2022-10-08T07:57:36.439Z,12.82
2022-10-08T07:58:36.409Z,12.85
2022-10-08T07:59:36.395Z,12.83
2022-10-08T08:00:36.418Z,12.85
2022-10-08T08:01:36.350Z,12.79
2022-10-08T08:02:36.365Z,12.90
2022-10-08T08:03:36.298Z,12.97
2022-10-08T08:04:36.273Z,12.95
2022-10-08T08:05:36.249Z,12.93
2022-10-08T08:06:36.228Z,13.01
2022-10-08T08:07:36.221Z,12.95
2022-10-08T08:08:36.186Z,12.93
2022-10-08T08:09:36.161Z,12.97
2022-10-08T08:10:36.145Z,13.01
2022-10-08T08:11:36.109Z,13.04
2022-10-08T08:12:36.090Z,13.14
2022-10-08T08:13:37.452Z,13.11
2022-10-08T08:14:36.040Z,13.07
2022-10-08T08:15:36.022Z,13.17
2022-10-08T08:16:36.109Z,13.19
2022-10-08T08:17:35.972Z,13.20
2022-10-08T08:18:35.945Z,13.20
2022-10-08T08:19:35.922Z,13.23
2022-10-08T08:20:35.900Z,13.17
2022-10-08T08:21:35.879Z,13.26
2022-10-08T08:22:35.851Z,13.25
2022-10-08T08:23:35.850Z,13.19
2022-10-08T08:24:35.807Z,13.25
2022-10-08T08:25:35.787Z,13.22
2022-10-08T08:26:35.767Z,13.29
2022-10-08T08:27:35.737Z,13.33
2022-10-08T08:28:35.761Z,13.28
2022-10-08T08:29:35.689Z,13.23
2022-10-08T08:30:35.667Z,13.38
2022-10-08T08:31:35.788Z,13.41
2022-10-08T08:32:35.623Z,13.45
2022-10-08T08:33:35.600Z,13.42
2022-10-08T08:34:35.573Z,13.44
2022-10-08T08:35:35.552Z,13.44
2022-10-08T08:36:35.523Z,13.41
2022-10-08T08:37:35.506Z,13.44
2022-10-08T08:38:35.482Z,13.46
2022-10-08T08:39:35.477Z,13.59
2022-10-08T08:40:35.433Z,13.62
2022-10-08T08:41:35.411Z,13.54
2022-10-08T08:42:35.389Z,13.55
2022-10-08T08:43:35.363Z,13.46
2022-10-08T08:44:35.341Z,13.59
2022-10-08T08:45:46.304Z,13.54
2022-10-08T08:46:35.346Z,13.54
2022-10-08T08:47:35.273Z,13.52
2022-10-08T08:48:35.248Z,13.62
2022-10-08T08:49:35.293Z,13.57
2022-10-08T08:50:35.203Z,13.64
2022-10-08T08:51:35.182Z,13.62
2022-10-08T08:52:35.159Z,13.77
2022-10-08T08:53:35.132Z,13.66
2022-10-08T08:54:35.113Z,13.67
2022-10-08T08:55:35.112Z,13.67
2022-10-08T08:56:35.066Z,13.67
2022-10-08T08:57:35.044Z,13.81
2022-10-08T08:58:35.019Z,13.79
2022-10-08T08:59:34.994Z,13.84
2022-10-08T09:00:34.973Z,13.81
2022-10-08T09:01:35.049Z,13.84
2022-10-08T09:02:34.922Z,13.78
2022-10-08T09:03:34.907Z,13.92
2022-10-08T09:04:34.876Z,13.91
2022-10-08T09:05:34.949Z,13.89
2022-10-08T09:06:34.834Z,13.85
2022-10-08T09:07:34.813Z,13.89
2022-10-08T09:08:34.786Z,13.95
2022-10-08T09:09:34.772Z,13.89
2022-10-08T09:10:34.750Z,13.96
2022-10-08T09:11:34.741Z,13.89
2022-10-08T09:12:34.694Z,13.84
2022-10-08T09:13:34.675Z,13.82
2022-10-08T09:14:34.648Z,13.85
2022-10-08T09:15:34.631Z,13.85
2022-10-08T09:16:34.667Z,13.95
2022-10-08T09:17:34.581Z,13.84
2022-10-08T09:18:34.561Z,13.89
2022-10-08T09:19:34.535Z,13.89
2022-10-08T09:20:39.268Z,13.85
2022-10-08T09:21:34.485Z,13.87
2022-10-08T09:22:34.464Z,13.91
2022-10-08T09:23:34.443Z,13.99
2022-10-08T09:24:34.420Z,14.09
2022-10-08T09:25:34.395Z,14.09
2022-10-08T09:26:34.373Z,14.10
2022-10-08T09:27:34.372Z,14.07
2022-10-08T09:28:34.374Z,14.20
2022-10-08T09:29:34.307Z,14.22
2022-10-08T09:30:34.417Z,14.24
2022-10-08T09:31:34.326Z,14.28
2022-10-08T09:32:34.235Z,14.29
2022-10-08T09:33:34.213Z,14.35
2022-10-08T09:34:34.187Z,14.35
2022-10-08T09:35:34.168Z,14.43
2022-10-08T09:36:34.145Z,14.46
2022-10-08T09:37:34.132Z,14.42
2022-10-08T09:38:34.098Z,14.50
2022-10-08T09:39:34.077Z,14.47
2022-10-08T09:40:34.058Z,14.39
2022-10-08T09:41:34.028Z,14.40
2022-10-08T09:42:34.003Z,14.45
2022-10-08T09:43:34.006Z,14.45
2022-10-08T09:44:33.959Z,14.50
2022-10-08T09:45:33.938Z,14.43
2022-10-08T09:46:33.917Z,14.39
2022-10-08T09:47:33.899Z,14.45
2022-10-08T09:48:33.898Z,14.47
2022-10-08T09:49:33.872Z,14.60
2022-10-08T09:50:33.837Z,14.55
2022-10-08T09:51:33.805Z,14.57
2022-10-08T09:52:33.778Z,14.72
2022-10-08T09:53:33.757Z,14.54
2022-10-08T09:54:33.733Z,14.58
2022-10-08T09:55:33.711Z,14.52
2022-10-08T09:56:33.689Z,14.39
2022-10-08T09:57:33.667Z,14.45
2022-10-08T09:58:33.644Z,14.36
2022-10-08T09:59:33.645Z,14.42
2022-10-08T10:00:33.599Z,14.45
2022-10-08T10:01:33.618Z,14.45
2022-10-08T10:02:33.552Z,14.51
2022-10-08T10:03:33.607Z,14.70
2022-10-08T10:04:33.507Z,14.65
2022-10-08T10:05:33.485Z,14.75
2022-10-08T10:06:33.472Z,14.86
2022-10-08T10:07:33.437Z,14.88
2022-10-08T10:08:33.418Z,14.91
2022-10-08T10:09:33.397Z,14.91
2022-10-08T10:10:33.377Z,14.94
2022-10-08T10:11:33.347Z,14.94
2022-10-08T10:12:33.325Z,14.95
2022-10-08T10:13:33.300Z,14.94
2022-10-08T10:14:33.279Z,15.01
2022-10-08T10:15:33.280Z,15.11
2022-10-08T10:16:33.286Z,15.06
2022-10-08T10:17:33.210Z,15.06
2022-10-08T10:18:33.187Z,15.02
2022-10-08T10:19:33.168Z,14.99
2022-10-08T10:20:33.144Z,15.11
2022-10-08T10:21:33.140Z,15.02
2022-10-08T10:22:33.099Z,14.96
2022-10-08T10:23:33.075Z,15.06
2022-10-08T10:24:33.051Z,15.02
2022-10-08T10:25:33.031Z,14.94
2022-10-08T10:26:33.009Z,14.91
2022-10-08T10:27:32.986Z,14.78
2022-10-08T10:28:33.032Z,14.84
2022-10-08T10:29:32.944Z,14.78
2022-10-08T10:30:32.984Z,14.68
2022-10-08T10:31:32.919Z,14.73
2022-10-08T10:32:32.875Z,14.72
2022-10-08T10:33:32.856Z,14.57
2022-10-08T10:34:32.826Z,14.64
2022-10-08T10:35:32.811Z,14.64
2022-10-08T10:36:32.785Z,14.75
2022-10-08T10:37:32.764Z,14.55
2022-10-08T10:38:32.739Z,14.61
2022-10-08T10:39:32.719Z,14.60
2022-10-08T10:40:32.692Z,14.72
2022-10-08T10:41:32.671Z,14.75
2022-10-08T10:42:32.649Z,14.70
2022-10-08T10:43:32.628Z,14.69
2022-10-08T10:44:32.610Z,14.61
2022-10-08T10:45:32.581Z,14.77
2022-10-08T10:46:32.636Z,14.69
2022-10-08T10:47:32.587Z,14.57
2022-10-08T10:48:32.517Z,14.72
2022-10-08T10:49:32.489Z,14.69
2022-10-08T10:50:32.461Z,14.80
2022-10-08T10:51:32.445Z,14.89
2022-10-08T10:52:32.417Z,14.98
2022-10-08T10:53:32.406Z,15.03
2022-10-08T10:54:32.376Z,15.13
2022-10-08T10:55:32.350Z,15.27
2022-10-08T10:56:32.330Z,15.41
2022-10-08T10:57:32.312Z,15.50
2022-10-08T10:58:32.287Z,15.69
2022-10-08T10:59:32.266Z,15.71
2022-10-08T11:00:32.242Z,15.74
2022-10-08T11:01:32.299Z,15.83
2022-10-08T11:02:32.276Z,15.86
2022-10-08T11:03:32.278Z,16.11
2022-10-08T11:04:32.146Z,16.20
2022-10-08T11:05:32.126Z,16.31
2022-10-08T11:06:32.105Z,16.45
2022-10-08T11:07:32.086Z,16.42
2022-10-08T11:08:32.059Z,16.50
2022-10-08T11:09:32.040Z,15.96
2022-10-08T11:10:32.018Z,15.49
2022-10-08T11:11:33.280Z,15.06
2022-10-08T11:12:31.973Z,14.57
2022-10-08T11:13:31.947Z,14.17
2022-10-08T11:14:31.926Z,13.97
2022-10-08T11:15:31.980Z,13.84
2022-10-08T11:16:31.882Z,13.70
2022-10-08T11:17:31.860Z,13.51
2022-10-08T11:18:31.837Z,13.41
2022-10-08T11:19:31.837Z,13.30
2022-10-08T11:20:31.806Z,13.23
2022-10-08T11:21:31.770Z,13.11
2022-10-08T11:22:31.751Z,12.95
2022-10-08T11:23:31.723Z,12.97
2022-10-08T11:24:31.704Z,13.00
2022-10-08T11:25:31.857Z,13.01
2022-10-08T11:26:31.654Z,13.03
2022-10-08T11:27:31.631Z,13.01
2022-10-08T11:28:31.646Z,13.04
2022-10-08T11:29:31.586Z,13.15
2022-10-08T11:30:31.570Z,13.07
2022-10-08T11:31:31.547Z,13.07
2022-10-08T11:32:31.526Z,13.10
2022-10-08T11:33:31.494Z,13.20
2022-10-08T11:34:31.471Z,13.25
2022-10-08T11:35:31.476Z,13.30
2022-10-08T11:36:33.089Z,13.30
2022-10-08T11:37:31.411Z,13.25
2022-10-08T11:38:31.383Z,13.45
2022-10-08T11:39:31.363Z,13.44
2022-10-08T11:40:31.336Z,13.48
2022-10-08T11:41:31.312Z,13.67
2022-10-08T11:42:31.290Z,13.67
2022-10-08T11:43:31.265Z,13.79
2022-10-08T11:44:31.249Z,13.84
2022-10-08T11:45:31.222Z,13.96
2022-10-08T11:46:31.425Z,13.96
2022-10-08T11:47:31.178Z,14.07
2022-10-08T11:48:31.152Z,14.06
2022-10-08T11:49:31.134Z,14.07
2022-10-08T11:50:31.123Z,14.14
2022-10-08T11:51:31.105Z,14.33
2022-10-08T11:52:31.061Z,14.29
2022-10-08T11:53:31.036Z,14.42
2022-10-08T11:54:31.019Z,14.37
2022-10-08T11:55:31.003Z,14.43
2022-10-08T11:56:30.975Z,14.43
2022-10-08T11:57:43.719Z,14.42
2022-10-08T11:58:30.926Z,14.36
2022-10-08T11:59:30.904Z,14.55
2022-10-08T12:00:30.882Z,14.58
2022-10-08T12:01:30.863Z,14.61
2022-10-08T12:02:30.972Z,14.70
2022-10-08T12:03:30.963Z,14.75
2022-10-08T12:04:30.796Z,14.83
2022-10-08T12:05:30.767Z,14.89
2022-10-08T12:06:30.746Z,14.95
2022-10-08T12:07:30.742Z,14.98
2022-10-08T12:08:30.701Z,14.94
2022-10-08T12:09:30.679Z,14.92
2022-10-08T12:10:30.656Z,14.88
2022-10-08T12:11:30.635Z,14.98
2022-10-08T12:12:30.612Z,15.03
2022-10-08T12:13:30.591Z,15.09
2022-10-08T12:14:30.571Z,14.98
2022-10-08T12:15:30.546Z,15.16
2022-10-08T12:16:30.561Z,15.17
2022-10-08T12:17:30.499Z,15.27
2022-10-08T12:18:30.479Z,15.27
2022-10-08T12:19:30.456Z,15.31
2022-10-08T12:20:30.437Z,15.34
2022-10-08T12:21:30.413Z,15.38
2022-10-08T12:22:30.391Z,15.41
2022-10-08T12:23:30.386Z,15.43
2022-10-08T12:24:30.346Z,15.41
2022-10-08T12:25:30.327Z,15.38
2022-10-08T12:26:30.299Z,15.46
2022-10-08T12:27:30.276Z,15.56
2022-10-08T12:28:30.324Z,15.57
2022-10-08T12:29:30.239Z,15.74
2022-10-08T12:30:30.213Z,15.56
2022-10-08T12:31:30.325Z,15.49
2022-10-08T12:32:30.167Z,15.50
2022-10-08T12:33:30.146Z,15.35
2022-10-08T12:34:30.121Z,15.31
2022-10-08T12:35:30.096Z,15.21
2022-10-08T12:36:30.080Z,15.19
2022-10-08T12:37:30.056Z,15.14
2022-10-08T12:38:30.035Z,15.02
2022-10-08T12:39:30.036Z,15.07
2022-10-08T12:40:29.993Z,14.99
2022-10-08T12:41:29.969Z,14.89
2022-10-08T12:42:29.952Z,14.88
2022-10-08T12:43:29.922Z,15.07
2022-10-08T12:44:29.907Z,14.94
2022-10-08T12:45:29.877Z,14.94
2022-10-08T12:46:29.949Z,14.99
2022-10-08T12:47:29.832Z,15.02
2022-10-08T12:48:29.812Z,15.20
2022-10-08T12:49:29.790Z,15.19
2022-10-08T12:50:29.761Z,15.25
2022-10-08T12:51:29.745Z,15.23
2022-10-08T12:52:29.721Z,15.09